createdAt,value
2023-08-20T00:00:31.508Z,16.17
2023-08-20T00:03:08.333Z,15.95
2023-08-20T00:05:35.522Z,16.90
2023-08-20T00:08:02.134Z,15.90
2023-08-20T00:10:28.792Z,16.55
2023-08-20T00:12:55.467Z,15.88
2023-08-20T00:15:27.437Z,16.67
2023-08-20T00:17:55.383Z,15.68
2023-08-20T00:20:22.950Z,15.35
2023-08-20T00:22:50.014Z,16.42
2023-08-20T00:25:18.351Z,16.30
2023-08-20T00:27:45.138Z,15.77
2023-08-20T00:30:12.618Z,15.73
2023-08-20T00:32:39.685Z,17.38
2023-08-20T00:35:08.503Z,17.13
2023-08-20T00:37:36.228Z,16.52
2023-08-20T00:40:05.988Z,14.93
2023-08-20T00:42:32.809Z,15.75
2023-08-20T00:44:59.525Z,15.60
2023-08-20T00:47:26.511Z,16.05
2023-08-20T00:49:53.896Z,16.17
2023-08-20T00:52:22.438Z,15.13
2023-08-20T00:54:51.089Z,14.65
2023-08-20T00:57:20.574Z,14.02
2023-08-20T00:59:51.864Z,14.10
2023-08-20T01:02:18.945Z,15.65
2023-08-20T01:04:47.901Z,14.80
2023-08-20T01:07:46.841Z,14.95
2023-08-20T01:10:43.781Z,15.00
2023-08-20T01:13:11.196Z,14.45
2023-08-20T01:15:37.892Z,14.25
2023-08-20T01:18:04.663Z,15.05
2023-08-20T01:20:36.967Z,15.73
2023-08-20T01:23:22.492Z,14.88
2023-08-20T01:26:20.990Z,14.90
2023-08-20T01:28:48.401Z,16.15
2023-08-20T01:31:16.266Z,15.27
2023-08-20T01:33:43.504Z,14.90
2023-08-20T01:36:12.805Z,15.23
2023-08-20T01:38:39.472Z,14.40
2023-08-20T01:41:06.281Z,16.02
2023-08-20T01:43:32.920Z,14.15
2023-08-20T01:45:59.545Z,15.88
2023-08-20T01:48:26.258Z,14.20
2023-08-20T01:50:52.925Z,14.77
2023-08-20T01:53:19.556Z,16.30
2023-08-20T01:55:46.245Z,16.15
2023-08-20T01:58:12.870Z,16.10
2023-08-20T02:00:39.565Z,18.65
2023-08-20T02:03:06.234Z,15.75
2023-08-20T02:05:32.987Z,16.58
2023-08-20T02:07:59.643Z,15.68
2023-08-20T02:10:26.228Z,14.65
2023-08-20T02:12:52.811Z,16.25
2023-08-20T02:15:19.453Z,16.50
2023-08-20T02:17:46.058Z,17.73
2023-08-20T02:20:12.834Z,16.75
2023-08-20T02:22:39.420Z,15.50
2023-08-20T02:25:06.320Z,15.32
2023-08-20T02:27:33.438Z,15.48
2023-08-20T02:30:00.814Z,15.48
2023-08-20T02:32:27.417Z,14.15
2023-08-20T02:34:54.712Z,14.93
2023-08-20T02:37:21.433Z,16.65
2023-08-20T02:39:48.101Z,15.95
2023-08-20T02:42:14.702Z,15.45
2023-08-20T02:44:41.329Z,16.05
2023-08-20T02:47:09.210Z,14.90
2023-08-20T02:49:35.805Z,15.25
2023-08-20T02:52:04.102Z,15.25
2023-08-20T02:54:33.064Z,15.77
2023-08-20T02:57:00.470Z,16.17
2023-08-20T02:59:30.312Z,16.10
2023-08-20T03:01:56.984Z,16.52
2023-08-20T03:04:23.677Z,15.05
2023-08-20T03:06:50.332Z,15.18
2023-08-20T03:09:17.028Z,15.43
2023-08-20T03:11:43.999Z,16.80
2023-08-20T03:14:10.740Z,15.32
2023-08-20T03:16:37.407Z,16.02
2023-08-20T03:19:04.918Z,15.35
2023-08-20T03:21:31.580Z,15.15
2023-08-20T03:23:58.184Z,17.77
2023-08-20T03:26:24.822Z,15.45
2023-08-20T03:28:51.399Z,15.38
2023-08-20T03:31:18.050Z,17.45
2023-08-20T03:33:44.708Z,18.73
2023-08-20T03:36:11.299Z,14.95
2023-08-20T03:38:37.906Z,17.77
2023-08-20T03:41:04.597Z,16.63
2023-08-20T03:43:31.249Z,15.65
2023-08-20T03:45:57.974Z,15.95
2023-08-20T03:48:24.680Z,16.92
2023-08-20T03:50:51.280Z,16.02
2023-08-20T03:53:17.919Z,15.02
2023-08-20T03:55:51.939Z,16.33
2023-08-20T03:58:18.852Z,15.38
2023-08-20T04:00:45.734Z,14.80
2023-08-20T04:03:12.701Z,14.43
2023-08-20T04:05:39.927Z,15.48
2023-08-20T04:08:07.891Z,14.90
2023-08-20T04:10:34.592Z,15.63
2023-08-20T04:13:01.224Z,15.50
2023-08-20T04:15:28.066Z,16.75
2023-08-20T04:17:54.930Z,16.95
2023-08-20T04:20:21.635Z,17.42
2023-08-20T04:22:48.806Z,19.33
2023-08-20T04:25:15.523Z,16.38
2023-08-20T04:27:42.210Z,15.65
2023-08-20T04:30:09.830Z,15.75
2023-08-20T04:32:36.597Z,17.73
2023-08-20T04:35:03.346Z,16.13
2023-08-20T04:37:29.973Z,16.50
2023-08-20T04:39:56.612Z,17.27
2023-08-20T04:42:23.350Z,16.35
2023-08-20T04:44:49.947Z,17.20
2023-08-20T04:47:16.879Z,18.92
2023-08-20T04:49:43.663Z,17.58
2023-08-20T04:52:10.364Z,16.10
2023-08-20T04:54:37.178Z,19.48
2023-08-20T04:57:03.892Z,19.27
2023-08-20T04:59:30.611Z,16.80
2023-08-20T05:01:57.226Z,17.65
2023-08-20T05:04:24.142Z,17.08
2023-08-20T05:06:51.296Z,16.48
2023-08-20T05:09:17.991Z,16.30
2023-08-20T05:11:44.659Z,17.60
2023-08-20T05:14:11.310Z,17.20
2023-08-20T05:16:38.109Z,17.25
2023-08-20T05:19:04.925Z,18.52
2023-08-20T05:21:31.543Z,18.05
2023-08-20T05:23:58.158Z,17.33
2023-08-20T05:26:24.821Z,17.75
2023-08-20T05:28:51.415Z,19.52
2023-08-20T05:31:18.092Z,18.38
2023-08-20T05:33:44.750Z,19.67
2023-08-20T05:36:11.416Z,20.23
2023-08-20T05:38:38.026Z,16.92
2023-08-20T05:41:04.689Z,18.08
2023-08-20T05:43:31.324Z,18.25
2023-08-20T05:45:57.948Z,18.80
2023-08-20T05:48:24.584Z,21.67
2023-08-20T05:50:51.251Z,18.45
2023-08-20T05:53:17.934Z,18.23
2023-08-20T05:55:44.564Z,16.67
2023-08-20T05:58:12.888Z,18.58
2023-08-20T06:00:39.591Z,17.95
2023-08-20T06:03:06.346Z,16.73
2023-08-20T06:05:32.973Z,17.10
2023-08-20T06:07:59.581Z,20.48
2023-08-20T06:10:26.353Z,17.50
2023-08-20T06:12:53.324Z,17.88
2023-08-20T06:15:19.992Z,16.98
2023-08-20T06:17:46.598Z,17.33
2023-08-20T06:20:13.249Z,16.25
2023-08-20T06:22:39.940Z,18.48
2023-08-20T06:25:07.086Z,16.25
2023-08-20T06:27:35.137Z,17.25
2023-08-20T06:30:02.659Z,16.98
2023-08-20T06:32:29.395Z,14.65
2023-08-20T06:34:56.027Z,15.30
2023-08-20T06:37:22.664Z,16.13
2023-08-20T06:39:49.376Z,16.58
2023-08-20T06:42:15.983Z,14.50
2023-08-20T06:44:42.671Z,15.27
2023-08-20T06:47:09.319Z,15.80
2023-08-20T06:49:35.986Z,14.27
2023-08-20T06:52:02.574Z,15.82
2023-08-20T06:54:29.214Z,16.17
2023-08-20T06:56:55.812Z,15.35
2023-08-20T06:59:22.529Z,14.95
2023-08-20T07:04:30.214Z,15.13
2023-08-20T07:06:56.882Z,15.48
2023-08-20T07:09:23.538Z,15.48
2023-08-20T07:11:50.182Z,15.75
2023-08-20T07:14:16.909Z,16.23
2023-08-20T07:16:43.578Z,15.90
2023-08-20T07:19:10.251Z,15.77
2023-08-20T07:21:36.899Z,16.98
2023-08-20T07:24:03.623Z,14.95
2023-08-20T07:26:30.820Z,15.45
2023-08-20T07:28:57.656Z,17.25
2023-08-20T07:31:25.811Z,16.13
2023-08-20T07:33:55.927Z,15.65
2023-08-20T07:36:23.175Z,15.48
2023-08-20T07:38:50.368Z,15.85
2023-08-20T07:41:17.216Z,14.93
2023-08-20T07:43:44.205Z,15.90
2023-08-20T07:46:11.355Z,15.15
2023-08-20T07:48:38.255Z,16.00
2023-08-20T07:51:05.232Z,17.23
2023-08-20T07:53:33.267Z,16.88
2023-08-20T07:56:01.382Z,16.65
2023-08-20T07:58:30.766Z,15.32
2023-08-20T08:00:58.296Z,16.02
2023-08-20T08:03:27.949Z,15.93
2023-08-20T08:05:55.230Z,14.43
2023-08-20T08:08:22.950Z,16.20
2023-08-20T08:10:49.936Z,15.07
2023-08-20T08:13:22.372Z,14.60
2023-08-20T08:15:49.460Z,18.08
2023-08-20T08:18:16.180Z,15.75
2023-08-20T08:20:43.332Z,16.25
2023-08-20T08:23:11.456Z,15.95
2023-08-20T08:25:38.411Z,15.80
2023-08-20T08:28:06.035Z,16.90
2023-08-20T08:30:32.909Z,15.00
2023-08-20T08:33:00.114Z,18.27
2023-08-20T08:35:26.917Z,15.10
2023-08-20T08:37:53.611Z,14.57
2023-08-20T08:40:20.390Z,14.45
2023-08-20T08:42:51.588Z,16.90
2023-08-20T08:45:21.950Z,13.18
2023-08-20T08:47:50.203Z,15.40
2023-08-20T08:50:17.097Z,12.15
2023-08-20T08:52:45.868Z,12.70
2023-08-20T08:55:12.471Z,11.35
2023-08-20T08:57:39.153Z,11.15
2023-08-20T09:00:06.709Z,11.95
2023-08-20T09:02:36.794Z,11.40
2023-08-20T09:05:06.605Z,10.80
2023-08-20T09:07:34.158Z,10.48
2023-08-20T09:10:01.642Z,10.57
2023-08-20T09:12:28.765Z,12.27
2023-08-20T09:14:58.538Z,10.55
2023-08-20T09:17:27.769Z,10.77
2023-08-20T09:19:57.734Z,11.45
2023-08-20T09:22:24.814Z,10.98
2023-08-20T09:24:58.435Z,9.52
2023-08-20T09:27:25.824Z,8.93
2023-08-20T09:29:55.709Z,8.60
2023-08-20T09:32:27.387Z,8.80
2023-08-20T09:34:56.734Z,9.10
2023-08-20T09:37:25.320Z,8.00
2023-08-20T09:39:52.379Z,8.20
2023-08-20T09:42:19.377Z,7.30
2023-08-20T09:44:50.247Z,7.72
2023-08-20T09:47:19.599Z,7.53
2023-08-20T09:49:48.118Z,7.30
2023-08-20T09:52:44.614Z,7.97
2023-08-20T09:55:18.946Z,7.22
2023-08-20T09:57:48.440Z,7.88
2023-08-20T10:00:15.542Z,8.18
2023-08-20T10:02:43.272Z,7.80
2023-08-20T10:05:11.835Z,6.82
2023-08-20T10:07:39.263Z,7.13
2023-08-20T10:10:08.159Z,8.05
2023-08-20T10:12:36.633Z,8.85
2023-08-20T10:15:04.559Z,5.93
2023-08-20T10:17:34.210Z,6.20
2023-08-20T10:20:07.724Z,6.57
2023-08-20T10:22:38.796Z,7.03
2023-08-20T10:25:10.517Z,4.65
2023-08-20T10:27:39.577Z,4.85
2023-08-20T10:30:16.755Z,4.82
2023-08-20T10:32:49.025Z,4.85
2023-08-20T10:35:23.604Z,4.18
2023-08-20T10:38:20.625Z,6.00
2023-08-20T10:40:56.872Z,5.00
2023-08-20T10:43:41.690Z,4.80
2023-08-20T10:46:10.338Z,4.43
2023-08-20T10:48:41.626Z,6.22
2023-08-20T10:51:10.908Z,4.20
2023-08-20T10:53:37.716Z,5.43
2023-08-20T10:56:16.419Z,3.85
2023-08-20T10:58:45.130Z,3.00
2023-08-20T11:01:16.606Z,3.85
2023-08-20T11:03:45.456Z,3.60
2023-08-20T11:06:12.706Z,3.78
2023-08-20T11:08:40.795Z,4.38
2023-08-20T11:11:08.294Z,4.72
2023-08-20T11:13:35.730Z,3.00
2023-08-20T11:16:06.871Z,3.13
2023-08-20T11:18:34.801Z,3.75
2023-08-20T11:21:01.936Z,3.25
2023-08-20T11:23:32.863Z,2.95
2023-08-20T11:25:59.553Z,5.35
2023-08-20T11:28:29.929Z,4.53
2023-08-20T11:30:57.497Z,2.90
2023-08-20T11:33:25.053Z,3.67
2023-08-20T11:35:53.061Z,4.82
2023-08-20T11:38:21.942Z,3.17
2023-08-20T11:40:48.597Z,3.38
2023-08-20T11:43:15.197Z,3.45
2023-08-20T11:45:49.244Z,3.40
2023-08-20T11:48:17.846Z,3.53
2023-08-20T11:50:44.759Z,4.03
2023-08-20T11:53:11.903Z,3.75
2023-08-20T11:55:43.152Z,3.25
2023-08-20T11:58:12.859Z,2.70
2023-08-20T12:00:39.719Z,3.67
2023-08-20T12:03:06.568Z,2.90
2023-08-20T12:05:33.444Z,3.17
2023-08-20T12:08:01.800Z,3.05
2023-08-20T12:10:29.994Z,4.80
2023-08-20T12:12:58.408Z,3.75
2023-08-20T12:15:26.064Z,3.08
2023-08-20T12:18:01.119Z,3.22
2023-08-20T12:20:32.604Z,5.32
2023-08-20T12:23:02.570Z,2.65
2023-08-20T12:25:31.736Z,2.97
2023-08-20T12:27:58.508Z,3.40
2023-08-20T12:30:25.150Z,2.20
2023-08-20T12:32:51.804Z,3.70
2023-08-20T12:35:18.481Z,3.00
2023-08-20T12:37:45.164Z,4.03
2023-08-20T12:40:13.577Z,3.47
2023-08-20T12:42:42.034Z,3.30
2023-08-20T12:45:11.331Z,2.35
2023-08-20T12:47:38.333Z,3.60
2023-08-20T12:50:06.076Z,3.15
2023-08-20T12:52:33.458Z,3.03
2023-08-20T12:55:00.159Z,2.20
2023-08-20T12:57:26.796Z,3.05
2023-08-20T12:59:53.453Z,2.53
2023-08-20T13:02:21.573Z,3.20
2023-08-20T13:04:49.004Z,2.33
2023-08-20T13:07:17.616Z,2.88
2023-08-20T13:09:44.644Z,2.90
2023-08-20T13:12:13.375Z,2.40
2023-08-20T13:14:41.933Z,2.67
2023-08-20T13:17:09.383Z,2.22
2023-08-20T13:19:36.057Z,2.10
2023-08-20T13:22:02.641Z,2.25
2023-08-20T13:24:29.296Z,3.90
2023-08-20T13:26:55.961Z,3.08
2023-08-20T13:29:22.635Z,2.65
2023-08-20T13:31:49.357Z,3.58
2023-08-20T13:34:16.125Z,3.72
2023-08-20T13:36:43.054Z,2.90
2023-08-20T13:39:09.897Z,2.78
2023-08-20T13:41:36.483Z,2.45
2023-08-20T13:44:03.656Z,2.90
2023-08-20T13:46:30.475Z,2.42
2023-08-20T13:48:57.171Z,2.88
2023-08-20T13:51:23.816Z,3.80
2023-08-20T13:53:50.503Z,4.10
2023-08-20T13:56:17.146Z,2.35
2023-08-20T13:58:43.778Z,3.85
2023-08-20T14:01:10.643Z,3.72
2023-08-20T14:03:37.373Z,2.95
2023-08-20T14:06:04.108Z,3.05
2023-08-20T14:08:30.781Z,1.55
2023-08-20T14:10:58.019Z,3.15
2023-08-20T14:13:25.374Z,2.35
2023-08-20T14:15:52.069Z,4.05
2023-08-20T14:18:18.766Z,2.63
2023-08-20T14:20:45.832Z,3.28
2023-08-20T14:23:12.797Z,1.40
2023-08-20T14:25:41.649Z,2.85
2023-08-20T14:28:09.227Z,1.88
2023-08-20T14:30:39.663Z,1.85
2023-08-20T14:33:07.089Z,1.88
2023-08-20T14:35:34.130Z,2.28
2023-08-20T14:38:00.773Z,3.67
2023-08-20T14:40:27.615Z,2.28
2023-08-20T14:42:54.226Z,2.13
2023-08-20T14:45:20.872Z,4.15
2023-08-20T14:47:47.583Z,2.63
2023-08-20T14:50:14.272Z,2.35
2023-08-20T14:52:41.123Z,3.28
2023-08-20T14:55:10.845Z,3.85
2023-08-20T14:57:50.799Z,2.38
2023-08-20T15:00:19.482Z,4.15
2023-08-20T15:02:46.296Z,6.50
2023-08-20T15:05:13.536Z,4.07
2023-08-20T15:07:40.852Z,4.75
2023-08-20T15:10:08.403Z,2.90
2023-08-20T15:12:36.388Z,3.00
2023-08-20T15:15:04.942Z,5.07
2023-08-20T15:17:35.541Z,3.88
2023-08-20T15:20:06.228Z,5.05
2023-08-20T15:22:33.456Z,4.22
2023-08-20T15:25:00.142Z,3.75
2023-08-20T15:27:27.090Z,2.75
2023-08-20T15:29:53.765Z,3.65
2023-08-20T15:32:22.061Z,3.35
2023-08-20T15:34:49.645Z,5.60
2023-08-20T15:37:16.241Z,2.33
2023-08-20T15:39:43.454Z,2.63
2023-08-20T15:42:10.093Z,2.35
2023-08-20T15:44:36.819Z,3.10
2023-08-20T15:47:04.010Z,4.38
2023-08-20T15:49:30.641Z,3.00
2023-08-20T15:51:57.242Z,3.38
2023-08-20T15:54:23.932Z,2.75
2023-08-20T15:56:50.709Z,2.10
2023-08-20T15:59:17.306Z,3.90
2023-08-20T16:01:44.307Z,3.30
2023-08-20T16:04:11.242Z,3.05
2023-08-20T16:06:37.868Z,3.95
2023-08-20T16:09:05.528Z,2.58
2023-08-20T16:11:33.053Z,2.35
2023-08-20T16:13:59.649Z,2.40
2023-08-20T16:16:26.753Z,3.75
2023-08-20T16:18:53.760Z,4.75
2023-08-20T16:21:20.365Z,2.47
2023-08-20T16:23:46.972Z,4.95
2023-08-20T16:26:13.627Z,3.20
2023-08-20T16:28:42.882Z,4.65
2023-08-20T16:31:10.706Z,5.43
2023-08-20T16:33:37.441Z,3.33
2023-08-20T16:36:04.380Z,3.47
2023-08-20T16:38:31.825Z,3.28
2023-08-20T16:41:03.428Z,4.03
2023-08-20T16:43:31.521Z,2.88
2023-08-20T16:46:00.849Z,4.13
2023-08-20T16:48:28.147Z,3.13
2023-08-20T16:50:54.758Z,3.03
2023-08-20T16:53:21.738Z,3.13
2023-08-20T16:55:53.121Z,5.28
2023-08-20T16:58:23.592Z,4.72
2023-08-20T17:00:50.881Z,3.17
2023-08-20T17:03:17.826Z,3.45
2023-08-20T17:05:45.419Z,3.40
2023-08-20T17:08:12.082Z,3.85
2023-08-20T17:10:38.755Z,3.60
2023-08-20T17:13:05.793Z,2.42
2023-08-20T17:15:33.140Z,2.30
2023-08-20T17:18:00.443Z,3.17
2023-08-20T17:20:27.251Z,2.80
2023-08-20T17:22:53.952Z,2.30
2023-08-20T17:25:20.867Z,7.07
2023-08-20T17:27:48.708Z,2.90
2023-08-20T17:30:16.678Z,2.42
2023-08-20T17:32:43.474Z,3.33
2023-08-20T17:35:10.260Z,3.30
2023-08-20T17:37:38.643Z,3.35
2023-08-20T17:40:06.664Z,4.43
2023-08-20T17:42:33.286Z,3.75
2023-08-20T17:44:59.929Z,3.90
2023-08-20T17:47:26.539Z,3.95
2023-08-20T17:49:53.188Z,5.35
2023-08-20T17:52:22.712Z,3.50
2023-08-20T17:54:49.473Z,5.50
2023-08-20T17:57:16.087Z,3.90
2023-08-20T17:59:42.679Z,4.55
2023-08-20T18:02:09.309Z,6.25
2023-08-20T18:04:36.522Z,3.97
2023-08-20T18:07:05.031Z,6.47
2023-08-20T18:09:33.325Z,6.72
2023-08-20T18:12:00.416Z,5.70
2023-08-20T18:14:27.073Z,6.63
2023-08-20T18:16:53.901Z,4.50
2023-08-20T18:19:20.630Z,5.13
2023-08-20T18:21:47.251Z,3.40
2023-08-20T18:24:13.978Z,6.20
2023-08-20T18:26:40.602Z,4.70
2023-08-20T18:29:07.219Z,5.70
2023-08-20T18:31:33.834Z,2.65
2023-08-20T18:34:01.634Z,4.35
2023-08-20T18:36:30.876Z,4.82
2023-08-20T18:38:57.512Z,3.55
2023-08-20T18:41:24.100Z,3.88
2023-08-20T18:43:50.743Z,6.05
2023-08-20T18:46:17.349Z,4.22
2023-08-20T18:48:44.050Z,4.55
2023-08-20T18:51:10.761Z,5.47
2023-08-20T18:53:37.403Z,6.22
2023-08-20T18:56:06.826Z,5.93
2023-08-20T18:58:33.850Z,7.90
2023-08-20T19:01:00.562Z,4.22
2023-08-20T19:03:27.374Z,4.63
2023-08-20T19:05:54.168Z,6.10
2023-08-20T19:08:26.097Z,6.68
2023-08-20T19:10:52.758Z,6.65
2023-08-20T19:13:19.353Z,5.78
2023-08-20T19:15:50.180Z,7.78
2023-08-20T19:18:17.997Z,6.50
2023-08-20T19:20:48.662Z,4.55
2023-08-20T19:23:15.726Z,5.70
2023-08-20T19:25:42.649Z,5.60
2023-08-20T19:28:10.380Z,6.75
2023-08-20T19:30:37.831Z,4.57
2023-08-20T19:33:04.495Z,7.07
2023-08-20T19:35:36.617Z,5.00
2023-08-20T19:38:04.463Z,5.20
2023-08-20T19:40:34.561Z,4.10
2023-08-20T19:43:01.224Z,5.00
2023-08-20T19:45:27.842Z,6.63
2023-08-20T19:47:54.527Z,5.57
2023-08-20T19:50:22.055Z,6.22
2023-08-20T19:52:49.106Z,7.75
2023-08-20T19:55:15.713Z,6.05
2023-08-20T19:57:44.663Z,3.42
2023-08-20T20:00:12.421Z,4.43
2023-08-20T20:02:40.160Z,6.65
2023-08-20T20:05:10.972Z,5.15
2023-08-20T20:07:38.048Z,4.75
2023-08-20T20:10:05.596Z,6.25
2023-08-20T20:12:32.447Z,5.22
2023-08-20T20:15:03.213Z,4.50
2023-08-20T20:17:31.043Z,5.57
2023-08-20T20:19:57.703Z,4.07
2023-08-20T20:22:26.764Z,5.55
2023-08-20T20:24:56.805Z,5.35
2023-08-20T20:27:24.072Z,4.10
2023-08-20T20:29:50.862Z,5.28
2023-08-20T20:32:18.975Z,8.48
2023-08-20T20:34:45.590Z,6.53
2023-08-20T20:37:12.183Z,6.15
2023-08-20T20:39:39.763Z,6.13
2023-08-20T20:42:07.504Z,5.15
2023-08-20T20:44:34.136Z,4.22
2023-08-20T20:47:00.735Z,4.70
2023-08-20T20:49:28.245Z,4.25
2023-08-20T20:51:54.930Z,4.32
2023-08-20T20:54:21.539Z,4.53
2023-08-20T20:56:48.189Z,5.68
2023-08-20T20:59:14.898Z,5.97
2023-08-20T21:01:44.838Z,6.30
2023-08-20T21:04:11.540Z,7.07
2023-08-20T21:06:38.143Z,6.00
2023-08-20T21:09:04.749Z,5.15
2023-08-20T21:11:31.360Z,4.65
2023-08-20T21:13:57.965Z,4.18
2023-08-20T21:16:24.676Z,8.43
2023-08-20T21:18:51.426Z,5.00
2023-08-20T21:21:18.036Z,4.57
2023-08-20T21:23:44.636Z,7.53
2023-08-20T21:26:12.144Z,6.68
2023-08-20T21:28:38.950Z,8.50
2023-08-20T21:31:05.757Z,7.25
2023-08-20T21:33:32.407Z,8.80
2023-08-20T21:35:59.080Z,7.43
2023-08-20T21:38:25.686Z,8.40
2023-08-20T21:40:52.297Z,9.90
2023-08-20T21:43:18.877Z,8.25
2023-08-20T21:45:46.703Z,8.52
2023-08-20T21:48:13.678Z,10.15
2023-08-20T21:50:40.378Z,10.13
2023-08-20T21:53:07.688Z,10.98
2023-08-20T21:55:35.261Z,9.32
2023-08-20T21:58:01.851Z,9.60
2023-08-20T22:00:28.548Z,10.75
2023-08-20T22:02:55.259Z,11.73
2023-08-20T22:05:22.682Z,10.35
2023-08-20T22:07:50.816Z,13.65
2023-08-20T22:10:22.206Z,10.13
2023-08-20T22:12:49.094Z,10.98
2023-08-20T22:15:15.809Z,10.70
2023-08-20T22:17:43.076Z,10.43
2023-08-20T22:20:11.329Z,10.57
2023-08-20T22:22:39.384Z,11.85
2023-08-20T22:25:08.366Z,11.48
2023-08-20T22:27:35.177Z,13.23
2023-08-20T22:30:01.801Z,14.10
2023-08-20T22:32:28.493Z,11.45
2023-08-20T22:34:55.148Z,13.85
2023-08-20T22:37:23.057Z,12.45
2023-08-20T22:39:49.660Z,13.57
2023-08-20T22:42:16.284Z,12.18
2023-08-20T22:44:42.979Z,11.68
2023-08-20T22:47:10.069Z,15.70
2023-08-20T22:49:36.795Z,10.95
2023-08-20T22:52:03.640Z,11.30
2023-08-20T22:54:30.253Z,12.80
2023-08-20T22:56:56.863Z,12.45
2023-08-20T22:59:23.467Z,13.70
2023-08-20T23:01:51.393Z,12.18
2023-08-20T23:04:18.883Z,12.20
2023-08-20T23:06:45.545Z,13.57
2023-08-20T23:09:12.180Z,13.02
2023-08-20T23:11:38.765Z,11.07
2023-08-20T23:14:05.413Z,12.10
2023-08-20T23:16:32.129Z,12.60
2023-08-20T23:18:59.982Z,12.45
2023-08-20T23:21:26.582Z,13.10
2023-08-20T23:23:53.220Z,10.52
2023-08-20T23:26:20.088Z,11.32
2023-08-20T23:28:46.737Z,10.98
2023-08-20T23:31:13.347Z,13.60
2023-08-20T23:33:39.977Z,11.43
2023-08-20T23:36:06.620Z,10.93
2023-08-20T23:38:40.703Z,13.93
2023-08-20T23:41:07.620Z,13.02
2023-08-20T23:43:34.239Z,13.43
2023-08-20T23:46:00.879Z,11.30
2023-08-20T23:48:27.536Z,11.43
2023-08-20T23:50:54.222Z,14.48
2023-08-20T23:53:20.860Z,13.07
2023-08-20T23:55:47.523Z,13.95
2023-08-20T23:58:14.115Z,12.88
